createdAt,value
2022-09-09T00:00:14.443Z,16.40
2022-09-09T00:02:47.344Z,16.50
2022-09-09T00:05:27.492Z,16.50
2022-09-09T00:07:59.609Z,16.40
2022-09-09T00:10:32.261Z,16.40
2022-09-09T00:13:07.662Z,16.40
2022-09-09T00:15:40.664Z,16.50
2022-09-09T00:18:18.270Z,16.40
2022-09-09T00:20:52.169Z,16.40
2022-09-09T00:23:25.669Z,16.40
2022-09-09T00:26:04.612Z,16.30
2022-09-09T00:28:37.182Z,16.20
2022-09-09T00:31:14.798Z,16.30
2022-09-09T00:33:44.922Z,16.20
2022-09-09T00:36:17.500Z,16.30
2022-09-09T00:38:50.142Z,16.30
2022-09-09T00:41:24.528Z,16.30
2022-09-09T00:43:59.968Z,16.30
2022-09-09T00:47:12.467Z,16.30
2022-09-09T00:49:52.976Z,16.40
2022-09-09T00:52:29.888Z,16.60
2022-09-09T00:55:06.545Z,16.60
2022-09-09T00:57:37.485Z,16.70
2022-09-09T01:00:22.647Z,16.80
2022-09-09T01:03:03.191Z,16.90
2022-09-09T01:05:38.648Z,17.00
2022-09-09T01:08:17.716Z,17.10
2022-09-09T01:10:51.658Z,17.30
2022-09-09T01:13:26.425Z,17.20
2022-09-09T01:15:59.830Z,17.10
2022-09-09T01:18:35.348Z,17.10
2022-09-09T01:21:10.996Z,17.00
2022-09-09T01:23:58.624Z,17.00
2022-09-09T01:26:33.637Z,17.00
2022-09-09T01:29:01.538Z,17.00
2022-09-09T01:31:32.387Z,17.00
2022-09-09T01:34:00.735Z,17.10
2022-09-09T01:36:35.242Z,17.00
2022-09-09T01:39:03.247Z,17.00
2022-09-09T01:41:32.551Z,17.00
2022-09-09T01:44:00.524Z,17.00
2022-09-09T01:46:29.987Z,17.00
2022-09-09T01:49:01.041Z,17.00
2022-09-09T01:51:29.351Z,17.00
2022-09-09T01:53:57.368Z,16.90
2022-09-09T01:56:37.810Z,16.80
2022-09-09T01:59:19.384Z,16.70
2022-09-09T02:01:59.818Z,16.70
2022-09-09T02:04:39.016Z,16.60
2022-09-09T02:07:18.770Z,16.50
2022-09-09T02:09:52.392Z,16.60
2022-09-09T02:12:26.475Z,16.50
2022-09-09T02:14:58.348Z,16.40
2022-09-09T02:17:31.077Z,16.40
2022-09-09T02:20:04.706Z,16.60
2022-09-09T02:22:35.765Z,16.40
2022-09-09T02:25:06.386Z,16.40
2022-09-09T02:27:35.804Z,16.40
2022-09-09T02:30:06.425Z,16.30
2022-09-09T02:32:37.999Z,16.30
2022-09-09T02:35:11.379Z,16.30
2022-09-09T02:37:42.581Z,16.20
2022-09-09T02:40:13.312Z,16.10
2022-09-09T02:42:44.166Z,16.10
2022-09-09T02:45:14.540Z,16.10
2022-09-09T02:47:49.384Z,16.00
2022-09-09T02:50:22.053Z,15.90
2022-09-09T02:53:03.929Z,15.90
2022-09-09T02:55:40.759Z,16.00
2022-09-09T02:58:13.565Z,15.90
2022-09-09T03:00:42.726Z,16.10
2022-09-09T03:03:11.036Z,16.10
2022-09-09T03:05:39.753Z,16.10
2022-09-09T03:08:08.026Z,16.20
2022-09-09T03:10:36.437Z,16.30
2022-09-09T03:13:05.254Z,16.30
2022-09-09T03:15:35.176Z,16.30
2022-09-09T03:18:03.291Z,16.30
2022-09-09T03:20:32.618Z,16.50
2022-09-09T03:23:02.501Z,16.70
2022-09-09T03:25:31.077Z,16.80
2022-09-09T03:27:58.955Z,17.00
2022-09-09T03:30:28.757Z,17.10
2022-09-09T03:32:58.274Z,17.20
2022-09-09T03:35:26.436Z,17.20
2022-09-09T03:37:55.958Z,17.30
2022-09-09T03:40:24.667Z,17.40
2022-09-09T03:42:52.405Z,17.30
2022-09-09T03:45:20.486Z,17.40
2022-09-09T03:47:48.234Z,17.40
2022-09-09T03:50:17.450Z,17.40
2022-09-09T03:52:45.213Z,17.50
2022-09-09T03:55:12.971Z,17.60
2022-09-09T03:57:40.710Z,17.60
2022-09-09T04:00:10.111Z,17.60
2022-09-09T04:02:37.933Z,17.70
2022-09-09T04:05:07.914Z,17.60
2022-09-09T04:07:37.034Z,17.60
2022-09-09T04:10:05.141Z,17.60
2022-09-09T04:12:32.956Z,17.70
2022-09-09T04:15:01.786Z,17.70
2022-09-09T04:17:29.669Z,17.80
2022-09-09T04:19:58.018Z,17.80
2022-09-09T04:22:25.816Z,17.70
2022-09-09T04:24:54.947Z,17.70
2022-09-09T04:27:22.698Z,17.70
2022-09-09T04:29:50.448Z,17.60
2022-09-09T04:32:18.515Z,17.60
2022-09-09T04:34:46.771Z,17.60
2022-09-09T04:37:15.055Z,17.70
2022-09-09T04:39:42.858Z,17.60
2022-09-09T04:42:14.568Z,17.60
2022-09-09T04:44:42.741Z,17.60
2022-09-09T04:47:10.555Z,17.50
2022-09-09T04:49:39.315Z,17.60
2022-09-09T04:52:07.150Z,17.60
2022-09-09T04:54:35.164Z,17.50
2022-09-09T04:57:03.013Z,17.50
2022-09-09T04:59:32.156Z,17.60
2022-09-09T05:02:01.986Z,17.60
2022-09-09T05:04:30.593Z,17.60
2022-09-09T05:06:58.480Z,17.60
2022-09-09T05:09:26.285Z,17.60
2022-09-09T05:11:54.073Z,17.60
2022-09-09T05:14:21.860Z,17.60
2022-09-09T05:16:51.057Z,17.70
2022-09-09T05:19:20.112Z,17.70
2022-09-09T05:21:47.897Z,17.70
2022-09-09T05:24:15.660Z,17.70
2022-09-09T05:26:43.808Z,17.70
2022-09-09T05:29:11.675Z,17.80
2022-09-09T05:31:40.050Z,17.70
2022-09-09T05:34:09.251Z,17.80
2022-09-09T05:36:37.029Z,17.70
2022-09-09T05:39:05.020Z,17.70
2022-09-09T05:41:32.818Z,17.80
2022-09-09T05:44:02.052Z,17.80
2022-09-09T05:46:29.889Z,17.80
2022-09-09T05:48:59.255Z,17.70
2022-09-09T05:51:31.067Z,17.80
2022-09-09T05:53:59.942Z,17.90
2022-09-09T05:56:29.572Z,17.90
2022-09-09T05:58:58.047Z,17.90
2022-09-09T06:01:28.271Z,18.00
2022-09-09T06:03:56.381Z,17.90
2022-09-09T06:06:26.887Z,17.90
2022-09-09T06:08:59.103Z,18.00
2022-09-09T06:11:28.397Z,18.00
2022-09-09T06:13:56.180Z,18.00
2022-09-09T06:16:25.816Z,18.10
2022-09-09T06:18:55.213Z,18.20
2022-09-09T06:21:25.011Z,18.20
2022-09-09T06:23:57.774Z,18.30
2022-09-09T06:26:31.542Z,18.40
2022-09-09T06:29:00.354Z,18.40
2022-09-09T06:31:31.135Z,18.40
2022-09-09T06:34:00.569Z,18.40
2022-09-09T06:36:30.319Z,18.40
2022-09-09T06:38:58.469Z,18.40
2022-09-09T06:41:28.458Z,18.40
2022-09-09T06:43:57.948Z,18.40
2022-09-09T06:46:28.712Z,18.40
2022-09-09T06:48:59.789Z,18.40
2022-09-09T06:51:28.929Z,18.50
2022-09-09T06:53:59.167Z,18.50
2022-09-09T06:56:29.079Z,18.40
2022-09-09T06:59:00.298Z,18.50
2022-09-09T07:01:30.209Z,18.60
2022-09-09T07:03:59.805Z,18.70
2022-09-09T07:06:29.430Z,18.80
2022-09-09T07:08:59.950Z,19.00
2022-09-09T07:11:30.326Z,19.00
2022-09-09T07:14:01.421Z,19.00
2022-09-09T07:16:30.443Z,19.20
2022-09-09T07:18:58.850Z,19.30
2022-09-09T07:21:28.248Z,19.30
2022-09-09T07:23:56.856Z,19.30
2022-09-09T07:26:26.509Z,19.40
2022-09-09T07:28:54.534Z,19.40
2022-09-09T07:31:26.062Z,19.30
2022-09-09T07:33:53.878Z,19.30
2022-09-09T07:36:23.678Z,19.40
2022-09-09T07:38:53.391Z,19.50
2022-09-09T07:41:23.915Z,19.80
2022-09-09T07:43:52.374Z,19.80
2022-09-09T07:46:23.951Z,19.60
2022-09-09T07:48:53.545Z,19.60
2022-09-09T07:51:23.683Z,19.60
2022-09-09T07:53:55.153Z,19.60
2022-09-09T07:56:23.550Z,19.50
2022-09-09T07:58:52.898Z,19.50
2022-09-09T08:01:24.283Z,19.40
2022-09-09T08:03:56.751Z,19.40
2022-09-09T08:06:25.889Z,19.50
2022-09-09T08:08:53.836Z,20.20
2022-09-09T08:11:21.896Z,20.80
2022-09-09T08:13:53.764Z,20.80
2022-09-09T08:16:26.401Z,20.70
2022-09-09T08:18:54.995Z,20.60
2022-09-09T08:21:24.286Z,21.20
2022-09-09T08:23:57.792Z,22.10
2022-09-09T08:26:28.791Z,22.60
2022-09-09T08:28:58.474Z,23.30
2022-09-09T08:31:29.947Z,23.70
2022-09-09T08:34:00.229Z,24.10
2022-09-09T08:36:30.876Z,24.60
2022-09-09T08:38:59.729Z,24.60
2022-09-09T08:41:48.653Z,24.90
2022-09-09T08:44:24.991Z,24.70
2022-09-09T08:47:01.856Z,25.00
2022-09-09T08:49:51.089Z,25.00
2022-09-09T08:52:25.292Z,24.70
2022-09-09T08:54:55.832Z,24.30
2022-09-09T08:57:27.672Z,23.90
2022-09-09T08:59:58.569Z,23.80
2022-09-09T09:02:34.869Z,23.60
2022-09-09T09:05:18.165Z,23.80
2022-09-09T09:08:00.913Z,23.90
2022-09-09T09:10:44.029Z,23.60
2022-09-09T09:13:17.790Z,23.90
2022-09-09T09:15:50.691Z,24.40
2022-09-09T09:18:20.059Z,24.50
2022-09-09T09:20:56.058Z,24.60
2022-09-09T09:23:27.170Z,24.70
2022-09-09T09:26:00.317Z,24.60
2022-09-09T09:28:31.530Z,24.30
2022-09-09T09:31:03.974Z,23.80
2022-09-09T09:33:36.508Z,23.60
2022-09-09T09:36:07.135Z,23.70
2022-09-09T09:41:32.730Z,24.30
2022-09-09T09:44:01.665Z,24.40
2022-09-09T09:46:29.940Z,24.50
2022-09-09T09:49:03.801Z,25.00
2022-09-09T09:51:33.326Z,25.30
2022-09-09T09:54:15.895Z,25.00
2022-09-09T09:56:45.645Z,25.60
2022-09-09T09:59:41.614Z,25.90
2022-09-09T10:02:20.978Z,26.20
2022-09-09T10:04:50.257Z,26.60
2022-09-09T10:07:21.767Z,27.00
2022-09-09T10:09:55.441Z,26.90
2022-09-09T10:12:37.312Z,27.00
2022-09-09T10:15:14.231Z,27.30
2022-09-09T10:17:50.120Z,27.40
2022-09-09T10:20:33.073Z,27.30
2022-09-09T10:23:13.127Z,27.30
2022-09-09T10:25:57.293Z,27.30
2022-09-09T10:28:42.751Z,27.80
2022-09-09T10:31:23.701Z,27.40
2022-09-09T10:33:58.035Z,26.70
2022-09-09T10:36:28.783Z,25.80
2022-09-09T10:39:03.251Z,24.80
2022-09-09T10:41:44.428Z,23.10
2022-09-09T10:44:24.763Z,22.20
2022-09-09T10:47:14.196Z,21.80
2022-09-09T10:50:10.385Z,21.90
2022-09-09T10:52:46.888Z,21.40
2022-09-09T10:55:19.075Z,21.30
2022-09-09T10:57:49.723Z,21.20
2022-09-09T11:00:20.457Z,21.10
2022-09-09T11:02:51.836Z,21.40
2022-09-09T11:05:23.007Z,21.40
2022-09-09T11:07:57.815Z,21.90
2022-09-09T11:10:31.344Z,21.80
2022-09-09T11:13:04.985Z,21.90
2022-09-09T11:15:39.980Z,21.90
2022-09-09T11:18:13.021Z,21.90
2022-09-09T11:20:41.369Z,22.10
2022-09-09T11:23:15.573Z,22.10
2022-09-09T11:25:48.170Z,22.20
2022-09-09T11:28:38.042Z,22.10
2022-09-09T11:31:33.945Z,22.00
2022-09-09T11:34:15.123Z,22.20
2022-09-09T11:36:56.984Z,22.70
2022-09-09T11:39:53.745Z,23.40
2022-09-09T11:42:24.627Z,23.90
2022-09-09T11:44:54.131Z,23.80
2022-09-09T11:47:27.364Z,23.70
2022-09-09T11:49:56.011Z,23.80
2022-09-09T11:52:26.633Z,24.00
2022-09-09T11:54:58.200Z,24.20
2022-09-09T11:57:29.505Z,24.00
2022-09-09T11:59:57.523Z,24.00
2022-09-09T12:02:27.504Z,23.90
2022-09-09T12:05:02.895Z,23.70
2022-09-09T12:07:36.397Z,23.60
2022-09-09T12:10:21.239Z,23.20
2022-09-09T12:12:49.037Z,22.90
2022-09-09T12:15:29.977Z,22.70
2022-09-09T12:18:03.806Z,22.80
2022-09-09T12:20:37.715Z,22.80
2022-09-09T12:23:26.100Z,22.90
2022-09-09T12:26:11.436Z,22.80
2022-09-09T12:28:48.569Z,22.90
2022-09-09T12:31:23.107Z,23.10
2022-09-09T12:33:53.481Z,23.00
2022-09-09T12:36:25.204Z,22.80
2022-09-09T12:38:53.419Z,22.70
2022-09-09T12:41:25.362Z,22.60
2022-09-09T12:43:53.714Z,22.50
2022-09-09T12:46:28.976Z,22.40
2022-09-09T12:48:57.573Z,22.30
2022-09-09T12:51:30.178Z,22.20
2022-09-09T12:53:58.828Z,22.10
2022-09-09T12:56:31.622Z,21.90
2022-09-09T12:59:01.533Z,21.90
2022-09-09T13:01:31.924Z,21.90
2022-09-09T13:03:59.893Z,21.90
2022-09-09T13:06:29.639Z,21.80
2022-09-09T13:09:00.479Z,21.90
2022-09-09T13:11:33.295Z,21.70
2022-09-09T13:14:01.741Z,21.60
2022-09-09T13:16:32.632Z,21.50
2022-09-09T13:19:02.124Z,21.40
2022-09-09T13:21:35.416Z,21.30
2022-09-09T13:24:05.162Z,21.30
2022-09-09T13:26:34.266Z,21.20
2022-09-09T13:29:19.774Z,21.00
2022-09-09T13:31:48.069Z,20.70
2022-09-09T13:34:17.039Z,20.40
2022-09-09T13:36:50.727Z,20.00
2022-09-09T13:39:19.794Z,19.70
2022-09-09T13:41:50.456Z,19.30
2022-09-09T13:44:24.259Z,19.20
2022-09-09T13:47:06.869Z,19.10
2022-09-09T13:49:38.020Z,19.20
2022-09-09T13:52:10.832Z,19.40
2022-09-09T13:54:38.598Z,19.50
2022-09-09T13:57:15.967Z,19.60
2022-09-09T14:00:03.754Z,19.70
2022-09-09T14:02:32.080Z,19.80
2022-09-09T14:04:59.876Z,20.00
2022-09-09T14:07:27.678Z,19.90
2022-09-09T14:09:55.455Z,20.10
2022-09-09T14:12:24.548Z,20.20
2022-09-09T14:14:52.660Z,20.10
2022-09-09T14:17:20.408Z,20.10
2022-09-09T14:19:48.143Z,20.20
2022-09-09T14:22:16.495Z,20.20
2022-09-09T14:24:44.288Z,20.20
2022-09-09T14:27:12.058Z,20.40
2022-09-09T14:29:41.188Z,20.40
2022-09-09T14:32:12.948Z,20.30
2022-09-09T14:34:41.561Z,20.30
2022-09-09T14:37:09.356Z,20.30
2022-09-09T14:39:37.195Z,20.40
2022-09-09T14:42:05.353Z,20.50
2022-09-09T14:44:33.136Z,20.60
2022-09-09T14:47:02.255Z,20.70
2022-09-09T14:49:29.982Z,20.70
2022-09-09T14:51:57.740Z,20.70
2022-09-09T14:54:25.607Z,20.60
2022-09-09T14:56:53.362Z,20.60
2022-09-09T14:59:21.188Z,20.50
2022-09-09T15:01:49.115Z,20.50
2022-09-09T15:04:19.270Z,20.50
2022-09-09T15:06:49.164Z,20.40
2022-09-09T15:09:17.461Z,20.40
2022-09-09T15:11:45.328Z,20.30
2022-09-09T15:14:13.246Z,20.30
2022-09-09T15:16:41.706Z,20.30
2022-09-09T15:19:10.179Z,20.40
2022-09-09T15:21:40.022Z,20.40
2022-09-09T15:24:09.109Z,20.30
2022-09-09T15:26:39.571Z,20.40
2022-09-09T15:29:08.416Z,20.30
2022-09-09T15:31:36.790Z,20.20
2022-09-09T15:34:06.774Z,20.10
2022-09-09T15:36:36.374Z,20.00
2022-09-09T15:39:07.929Z,19.90
2022-09-09T15:41:35.998Z,19.90
2022-09-09T15:44:04.657Z,19.90
2022-09-09T15:46:34.423Z,19.90
2022-09-09T15:49:06.903Z,19.80
2022-09-09T15:51:42.824Z,19.80
2022-09-09T15:54:14.412Z,19.80
2022-09-09T15:56:43.158Z,19.70
2022-09-09T15:59:11.287Z,19.70
2022-09-09T16:01:41.586Z,19.80
2022-09-09T16:04:09.820Z,19.70
2022-09-09T16:06:37.886Z,19.70
2022-09-09T16:09:07.916Z,19.80
2022-09-09T16:11:39.069Z,19.70
2022-09-09T16:14:08.089Z,19.60
2022-09-09T16:16:37.167Z,19.50
2022-09-09T16:19:07.651Z,19.50
2022-09-09T16:21:38.473Z,19.40
2022-09-09T16:24:07.951Z,19.20
2022-09-09T16:26:39.768Z,19.00
2022-09-09T16:29:07.918Z,18.90
2022-09-09T16:31:35.764Z,18.70
2022-09-09T16:34:05.157Z,18.50
2022-09-09T16:36:35.900Z,18.40
2022-09-09T16:39:06.029Z,18.30
2022-09-09T16:41:34.651Z,18.30
2022-09-09T16:44:05.970Z,18.30
2022-09-09T16:46:36.290Z,18.50
2022-09-09T16:49:06.219Z,18.50
2022-09-09T16:51:35.755Z,18.60
2022-09-09T16:54:05.497Z,18.90
2022-09-09T16:56:35.099Z,18.70
2022-09-09T16:59:06.109Z,18.60
2022-09-09T17:01:38.306Z,18.60
2022-09-09T17:04:08.693Z,18.40
2022-09-09T17:06:37.640Z,18.50
2022-09-09T17:09:07.203Z,18.40
2022-09-09T17:11:35.106Z,18.40
2022-09-09T17:14:05.185Z,18.30
2022-09-09T17:16:35.573Z,18.30
2022-09-09T17:19:04.751Z,18.20
2022-09-09T17:21:34.133Z,18.20
2022-09-09T17:24:02.558Z,18.20
2022-09-09T17:26:31.946Z,18.10
2022-09-09T17:29:00.046Z,18.00
2022-09-09T17:31:30.512Z,18.10
2022-09-09T17:33:59.938Z,18.00
2022-09-09T17:36:29.831Z,17.90
2022-09-09T17:38:58.020Z,17.90
2022-09-09T17:41:28.709Z,17.70
2022-09-09T17:43:58.023Z,17.70
2022-09-09T17:46:28.135Z,17.80
2022-09-09T17:49:00.213Z,17.70
2022-09-09T17:51:30.657Z,17.60
2022-09-09T17:54:00.746Z,17.70
2022-09-09T17:56:31.439Z,17.70
2022-09-09T17:59:00.211Z,17.70
2022-09-09T18:01:31.275Z,17.80
2022-09-09T18:04:02.873Z,17.70
2022-09-09T18:06:33.792Z,17.70
2022-09-09T18:09:04.139Z,17.60
2022-09-09T18:11:34.188Z,17.60
2022-09-09T18:14:03.977Z,17.50
2022-09-09T18:16:35.930Z,17.50
2022-09-09T18:19:06.940Z,17.60
2022-09-09T18:21:35.555Z,17.60
2022-09-09T18:24:05.495Z,17.50
2022-09-09T18:26:34.493Z,17.40
2022-09-09T18:29:05.043Z,17.30
2022-09-09T18:31:33.345Z,17.30
2022-09-09T18:34:03.145Z,17.40
2022-09-09T18:36:34.452Z,17.40
2022-09-09T18:39:04.335Z,17.50
2022-09-09T18:41:34.526Z,17.50
2022-09-09T18:44:03.752Z,17.50
2022-09-09T18:46:34.786Z,17.50
2022-09-09T18:49:02.659Z,17.40
2022-09-09T18:51:33.453Z,17.40
2022-09-09T18:54:05.017Z,17.50
2022-09-09T18:56:33.024Z,17.50
2022-09-09T18:59:03.617Z,17.50
2022-09-09T19:01:31.903Z,17.40
2022-09-09T19:03:59.834Z,17.50
2022-09-09T19:06:30.475Z,17.50
2022-09-09T19:09:03.196Z,17.50
2022-09-09T19:11:32.314Z,17.50
2022-09-09T19:14:01.758Z,17.60
2022-09-09T19:16:31.315Z,17.50
2022-09-09T19:19:00.754Z,17.50
2022-09-09T19:21:30.918Z,17.50
2022-09-09T19:24:02.621Z,17.50
2022-09-09T19:26:32.014Z,17.60
2022-09-09T19:28:59.982Z,17.60
2022-09-09T19:31:28.866Z,17.60
2022-09-09T19:33:57.187Z,17.60
2022-09-09T19:36:27.585Z,17.70
2022-09-09T19:38:56.658Z,17.70
2022-09-09T19:41:27.433Z,17.70
2022-09-09T19:44:01.047Z,17.70
2022-09-09T19:46:30.138Z,17.70
2022-09-09T19:49:00.915Z,17.90
2022-09-09T19:51:30.293Z,17.90
2022-09-09T19:54:00.633Z,17.90
2022-09-09T19:56:30.883Z,17.90
2022-09-09T19:58:59.471Z,17.80
2022-09-09T20:01:29.001Z,17.80
2022-09-09T20:03:59.738Z,17.80
2022-09-09T20:06:28.878Z,17.90
2022-09-09T20:08:57.853Z,18.00
2022-09-09T20:11:26.601Z,18.00
2022-09-09T20:13:56.327Z,17.90
2022-09-09T20:16:25.871Z,17.90
2022-09-09T20:18:56.493Z,17.90
2022-09-09T20:21:26.456Z,17.80
2022-09-09T20:23:56.474Z,17.90
2022-09-09T20:26:26.184Z,17.90
2022-09-09T20:28:56.338Z,17.90
2022-09-09T20:31:26.983Z,17.90
2022-09-09T20:33:56.294Z,17.90
2022-09-09T20:36:27.174Z,17.80
2022-09-09T20:38:57.958Z,17.80
2022-09-09T20:41:27.762Z,17.80
2022-09-09T20:43:59.203Z,17.80
2022-09-09T20:46:28.950Z,17.80
2022-09-09T20:49:02.708Z,17.80
2022-09-09T20:51:33.136Z,17.80
2022-09-09T20:54:03.835Z,17.70
2022-09-09T20:56:33.948Z,17.70
2022-09-09T20:59:03.046Z,17.70
2022-09-09T21:01:30.916Z,17.70
2022-09-09T21:04:00.036Z,17.70
2022-09-09T21:06:27.814Z,17.70
2022-09-09T21:08:55.699Z,17.70
2022-09-09T21:11:24.017Z,17.80
2022-09-09T21:13:52.165Z,17.70
2022-09-09T21:16:22.003Z,17.70
2022-09-09T21:18:50.603Z,17.70
2022-09-09T21:21:19.609Z,17.60
2022-09-09T21:23:47.402Z,17.70
2022-09-09T21:26:15.658Z,17.70
2022-09-09T21:28:43.612Z,17.70
2022-09-09T21:31:15.386Z,17.60
2022-09-09T21:33:44.559Z,17.70
2022-09-09T21:36:13.175Z,17.60
2022-09-09T21:38:41.588Z,17.60
2022-09-09T21:41:12.866Z,17.60
2022-09-09T21:43:41.815Z,17.60
2022-09-09T21:46:10.875Z,17.50
2022-09-09T21:48:38.912Z,17.60
2022-09-09T21:51:10.942Z,17.60
2022-09-09T21:53:39.589Z,17.60
2022-09-09T21:56:10.501Z,17.60
2022-09-09T21:58:39.494Z,17.50
2022-09-09T22:01:11.216Z,17.50
2022-09-09T22:03:39.937Z,17.60
2022-09-09T22:06:10.628Z,17.60
2022-09-09T22:08:38.492Z,17.50
2022-09-09T22:11:08.758Z,17.50
2022-09-09T22:13:38.114Z,17.60
2022-09-09T22:16:07.720Z,17.60
2022-09-09T22:18:35.778Z,17.60
2022-09-09T22:21:06.491Z,17.60
2022-09-09T22:23:36.388Z,17.60
2022-09-09T22:26:04.400Z,17.60
2022-09-09T22:28:32.490Z,17.60
2022-09-09T22:31:00.312Z,17.50
2022-09-09T22:33:28.367Z,17.60
2022-09-09T22:35:56.251Z,17.60
2022-09-09T22:38:24.056Z,17.50
2022-09-09T22:40:53.681Z,17.50
2022-09-09T22:43:22.744Z,17.60
2022-09-09T22:45:51.195Z,17.60
2022-09-09T22:48:19.714Z,17.60
2022-09-09T22:50:47.688Z,17.50
2022-09-09T22:53:18.068Z,17.50
2022-09-09T22:55:58.535Z,17.50
2022-09-09T22:58:26.486Z,17.50
2022-09-09T23:00:57.940Z,17.40
2022-09-09T23:03:26.026Z,17.30
2022-09-09T23:05:58.406Z,17.30
2022-09-09T23:08:27.527Z,17.50
2022-09-09T23:10:56.622Z,17.50
2022-09-09T23:13:25.377Z,17.50
2022-09-09T23:15:55.094Z,17.40
2022-09-09T23:18:24.084Z,17.40
2022-09-09T23:21:00.551Z,17.30
2022-09-09T23:23:28.566Z,17.30
2022-09-09T23:25:57.670Z,17.40
2022-09-09T23:28:26.762Z,17.40
2022-09-09T23:30:54.577Z,17.40
2022-09-09T23:33:22.689Z,17.50
2022-09-09T23:35:50.736Z,17.40
2022-09-09T23:38:18.481Z,17.30
2022-09-09T23:40:47.135Z,17.40
2022-09-09T23:43:16.249Z,17.40
2022-09-09T23:45:43.984Z,17.40
2022-09-09T23:48:12.057Z,17.50
2022-09-09T23:50:40.139Z,17.40
2022-09-09T23:53:08.467Z,17.40
2022-09-09T23:55:36.604Z,17.50
2022-09-09T23:58:04.853Z,17.50
